sensor_id;sensor_type;location;lat;lon;timestamp;P1;durP1;ratioP1;P2;durP2;ratioP2
9924;SDS011;5001;51.674;7.868;2024-03-06T00:00:12;28.47;;;22.80;;
9924;SDS011;5001;51.674;7.868;2024-03-06T00:02:39;26.30;;;21.37;;
9924;SDS011;5001;51.674;7.868;2024-03-06T00:05:06;25.07;;;22.27;;
9924;SDS011;5001;51.674;7.868;2024-03-06T00:07:35;27.50;;;23.27;;
9924;SDS011;5001;51.674;7.868;2024-03-06T00:10:02;24.77;;;22.17;;
9924;SDS011;5001;51.674;7.868;2024-03-06T00:12:31;25.60;;;21.93;;
9924;SDS011;5001;51.674;7.868;2024-03-06T00:14:58;27.87;;;22.10;;
9924;SDS011;5001;51.674;7.868;2024-03-06T00:17:25;29.40;;;23.83;;
9924;SDS011;5001;51.674;7.868;2024-03-06T00:19:53;25.47;;;22.43;;
9924;SDS011;5001;51.674;7.868;2024-03-06T00:22:20;25.67;;;22.67;;
9924;SDS011;5001;51.674;7.868;2024-03-06T00:24:49;24.87;;;22.17;;
9924;SDS011;5001;51.674;7.868;2024-03-06T00:27:17;29.23;;;23.60;;
9924;SDS011;5001;51.674;7.868;2024-03-06T00:29:45;25.90;;;23.13;;
9924;SDS011;5001;51.674;7.868;2024-03-06T00:32:12;27.50;;;22.80;;
9924;SDS011;5001;51.674;7.868;2024-03-06T00:34:39;27.70;;;22.53;;
9924;SDS011;5001;51.674;7.868;2024-03-06T00:37:06;33.90;;;24.83;;
9924;SDS011;5001;51.674;7.868;2024-03-06T00:39:33;27.93;;;23.70;;
9924;SDS011;5001;51.674;7.868;2024-03-06T00:42:00;29.53;;;24.20;;
9924;SDS011;5001;51.674;7.868;2024-03-06T00:44:27;26.87;;;24.00;;
9924;SDS011;5001;51.674;7.868;2024-03-06T00:46:54;30.30;;;24.77;;
9924;SDS011;5001;51.674;7.868;2024-03-06T00:49:21;27.20;;;24.00;;
9924;SDS011;5001;51.674;7.868;2024-03-06T00:51:48;27.90;;;24.90;;
9924;SDS011;5001;51.674;7.868;2024-03-06T00:54:15;28.23;;;24.67;;
9924;SDS011;5001;51.674;7.868;2024-03-06T00:56:43;27.70;;;23.47;;
9924;SDS011;5001;51.674;7.868;2024-03-06T00:59:10;27.40;;;23.17;;
9924;SDS011;5001;51.674;7.868;2024-03-06T01:01:38;28.63;;;23.60;;
9924;SDS011;5001;51.674;7.868;2024-03-06T01:04:05;30.63;;;24.40;;
9924;SDS011;5001;51.674;7.868;2024-03-06T01:06:32;29.07;;;23.27;;
9924;SDS011;5001;51.674;7.868;2024-03-06T01:08:59;27.63;;;24.10;;
9924;SDS011;5001;51.674;7.868;2024-03-06T01:11:26;29.40;;;23.30;;
9924;SDS011;5001;51.674;7.868;2024-03-06T01:13:53;30.40;;;23.13;;
9924;SDS011;5001;51.674;7.868;2024-03-06T01:16:21;27.33;;;22.80;;
9924;SDS011;5001;51.674;7.868;2024-03-06T01:18:48;33.70;;;23.37;;
9924;SDS011;5001;51.674;7.868;2024-03-06T01:21:15;29.07;;;24.60;;
9924;SDS011;5001;51.674;7.868;2024-03-06T01:23:42;31.03;;;23.83;;
9924;SDS011;5001;51.674;7.868;2024-03-06T01:26:09;31.90;;;24.40;;
9924;SDS011;5001;51.674;7.868;2024-03-06T01:28:38;30.03;;;22.90;;
9924;SDS011;5001;51.674;7.868;2024-03-06T01:31:05;29.17;;;23.83;;
9924;SDS011;5001;51.674;7.868;2024-03-06T01:33:32;31.03;;;23.80;;
9924;SDS011;5001;51.674;7.868;2024-03-06T01:36:02;34.17;;;25.17;;
9924;SDS011;5001;51.674;7.868;2024-03-06T01:38:29;33.73;;;24.37;;
9924;SDS011;5001;51.674;7.868;2024-03-06T01:40:56;32.70;;;24.47;;
9924;SDS011;5001;51.674;7.868;2024-03-06T01:43:23;35.57;;;26.63;;
9924;SDS011;5001;51.674;7.868;2024-03-06T01:45:52;33.73;;;25.13;;
9924;SDS011;5001;51.674;7.868;2024-03-06T01:48:20;35.97;;;24.87;;
9924;SDS011;5001;51.674;7.868;2024-03-06T01:50:55;37.30;;;24.73;;
9924;SDS011;5001;51.674;7.868;2024-03-06T01:53:28;36.37;;;26.03;;
9924;SDS011;5001;51.674;7.868;2024-03-06T01:55:57;33.53;;;25.07;;
9924;SDS011;5001;51.674;7.868;2024-03-06T01:58:25;40.33;;;27.93;;
9924;SDS011;5001;51.674;7.868;2024-03-06T02:00:52;37.77;;;27.47;;
9924;SDS011;5001;51.674;7.868;2024-03-06T02:03:20;41.93;;;27.17;;
9924;SDS011;5001;51.674;7.868;2024-03-06T02:05:48;44.97;;;29.27;;
9924;SDS011;5001;51.674;7.868;2024-03-06T02:08:17;41.37;;;27.03;;
9924;SDS011;5001;51.674;7.868;2024-03-06T02:10:44;43.30;;;28.57;;
9924;SDS011;5001;51.674;7.868;2024-03-06T02:13:13;44.93;;;29.37;;
9924;SDS011;5001;51.674;7.868;2024-03-06T02:15:41;43.03;;;29.47;;
9924;SDS011;5001;51.674;7.868;2024-03-06T02:18:09;43.43;;;29.73;;
9924;SDS011;5001;51.674;7.868;2024-03-06T02:20:39;38.33;;;27.27;;
9924;SDS011;5001;51.674;7.868;2024-03-06T02:23:07;41.67;;;27.07;;
9924;SDS011;5001;51.674;7.868;2024-03-06T02:25:35;36.87;;;27.30;;
9924;SDS011;5001;51.674;7.868;2024-03-06T02:28:02;41.67;;;27.57;;
9924;SDS011;5001;51.674;7.868;2024-03-06T02:30:29;39.70;;;26.97;;
9924;SDS011;5001;51.674;7.868;2024-03-06T02:33:02;40.30;;;27.13;;
9924;SDS011;5001;51.674;7.868;2024-03-06T02:35:33;39.57;;;27.03;;
9924;SDS011;5001;51.674;7.868;2024-03-06T02:38:03;39.43;;;27.40;;
9924;SDS011;5001;51.674;7.868;2024-03-06T02:40:34;38.43;;;26.90;;
9924;SDS011;5001;51.674;7.868;2024-03-06T02:43:01;42.73;;;27.10;;
9924;SDS011;5001;51.674;7.868;2024-03-06T02:45:28;40.57;;;26.73;;
9924;SDS011;5001;51.674;7.868;2024-03-06T02:47:55;37.63;;;27.07;;
9924;SDS011;5001;51.674;7.868;2024-03-06T02:50:22;40.03;;;27.77;;
9924;SDS011;5001;51.674;7.868;2024-03-06T02:52:50;35.47;;;27.30;;
9924;SDS011;5001;51.674;7.868;2024-03-06T02:55:18;41.60;;;28.20;;
9924;SDS011;5001;51.674;7.868;2024-03-06T02:57:46;43.47;;;27.80;;
9924;SDS011;5001;51.674;7.868;2024-03-06T03:00:16;37.97;;;26.83;;
9924;SDS011;5001;51.674;7.868;2024-03-06T03:02:43;42.50;;;27.33;;
9924;SDS011;5001;51.674;7.868;2024-03-06T03:05:10;41.50;;;29.57;;
9924;SDS011;5001;51.674;7.868;2024-03-06T03:07:37;41.10;;;28.03;;
9924;SDS011;5001;51.674;7.868;2024-03-06T03:10:04;39.90;;;27.37;;
9924;SDS011;5001;51.674;7.868;2024-03-06T03:12:31;39.77;;;27.37;;
9924;SDS011;5001;51.674;7.868;2024-03-06T03:14:58;37.17;;;27.43;;
9924;SDS011;5001;51.674;7.868;2024-03-06T03:17:25;40.00;;;26.90;;
9924;SDS011;5001;51.674;7.868;2024-03-06T03:19:52;38.53;;;27.20;;
9924;SDS011;5001;51.674;7.868;2024-03-06T03:22:19;40.77;;;27.43;;
9924;SDS011;5001;51.674;7.868;2024-03-06T03:24:46;47.40;;;32.80;;
9924;SDS011;5001;51.674;7.868;2024-03-06T03:27:13;36.87;;;26.40;;
9924;SDS011;5001;51.674;7.868;2024-03-06T03:29:40;44.97;;;28.17;;
9924;SDS011;5001;51.674;7.868;2024-03-06T03:32:07;37.57;;;27.20;;
9924;SDS011;5001;51.674;7.868;2024-03-06T03:34:35;41.50;;;28.27;;
9924;SDS011;5001;51.674;7.868;2024-03-06T03:37:02;37.97;;;27.27;;
9924;SDS011;5001;51.674;7.868;2024-03-06T03:39:29;39.47;;;27.97;;
9924;SDS011;5001;51.674;7.868;2024-03-06T03:41:56;39.93;;;27.63;;
9924;SDS011;5001;51.674;7.868;2024-03-06T03:44:23;41.10;;;28.23;;
9924;SDS011;5001;51.674;7.868;2024-03-06T03:46:50;36.43;;;27.90;;
9924;SDS011;5001;51.674;7.868;2024-03-06T03:49:17;35.57;;;27.50;;
9924;SDS011;5001;51.674;7.868;2024-03-06T03:51:45;42.10;;;26.83;;
9924;SDS011;5001;51.674;7.868;2024-03-06T03:54:12;36.50;;;28.40;;
9924;SDS011;5001;51.674;7.868;2024-03-06T03:56:39;40.33;;;29.13;;
9924;SDS011;5001;51.674;7.868;2024-03-06T03:59:06;40.80;;;27.53;;
9924;SDS011;5001;51.674;7.868;2024-03-06T04:01:34;38.93;;;27.97;;
9924;SDS011;5001;51.674;7.868;2024-03-06T04:04:01;40.30;;;26.93;;
9924;SDS011;5001;51.674;7.868;2024-03-06T04:06:28;36.10;;;27.97;;
9924;SDS011;5001;51.674;7.868;2024-03-06T04:08:55;44.30;;;28.90;;
9924;SDS011;5001;51.674;7.868;2024-03-06T04:11:22;39.87;;;28.13;;
9924;SDS011;5001;51.674;7.868;2024-03-06T04:13:49;41.67;;;28.33;;
9924;SDS011;5001;51.674;7.868;2024-03-06T04:16:17;40.80;;;27.47;;
9924;SDS011;5001;51.674;7.868;2024-03-06T04:18:44;41.87;;;29.07;;
9924;SDS011;5001;51.674;7.868;2024-03-06T04:21:12;40.90;;;28.63;;
9924;SDS011;5001;51.674;7.868;2024-03-06T04:23:42;41.20;;;28.17;;
9924;SDS011;5001;51.674;7.868;2024-03-06T04:26:10;42.77;;;27.50;;
9924;SDS011;5001;51.674;7.868;2024-03-06T04:28:38;39.97;;;27.57;;
9924;SDS011;5001;51.674;7.868;2024-03-06T04:31:05;37.53;;;27.70;;
9924;SDS011;5001;51.674;7.868;2024-03-06T04:33:32;39.93;;;29.30;;
9924;SDS011;5001;51.674;7.868;2024-03-06T04:36:02;44.70;;;30.83;;
9924;SDS011;5001;51.674;7.868;2024-03-06T04:38:32;41.13;;;29.27;;
9924;SDS011;5001;51.674;7.868;2024-03-06T04:40:59;37.43;;;29.10;;
9924;SDS011;5001;51.674;7.868;2024-03-06T04:43:25;39.07;;;27.47;;
9924;SDS011;5001;51.674;7.868;2024-03-06T04:45:52;35.73;;;28.30;;
9924;SDS011;5001;51.674;7.868;2024-03-06T04:48:20;41.50;;;28.10;;
9924;SDS011;5001;51.674;7.868;2024-03-06T04:50:47;42.20;;;27.67;;
9924;SDS011;5001;51.674;7.868;2024-03-06T04:53:14;39.63;;;27.80;;
9924;SDS011;5001;51.674;7.868;2024-03-06T04:55:41;48.13;;;27.50;;
9924;SDS011;5001;51.674;7.868;2024-03-06T04:58:08;42.93;;;28.10;;
9924;SDS011;5001;51.674;7.868;2024-03-06T05:00:36;42.53;;;29.20;;
9924;SDS011;5001;51.674;7.868;2024-03-06T05:03:03;49.03;;;29.43;;
9924;SDS011;5001;51.674;7.868;2024-03-06T05:05:48;57.10;;;32.30;;
9924;SDS011;5001;51.674;7.868;2024-03-06T05:08:32;50.30;;;30.07;;
9924;SDS011;5001;51.674;7.868;2024-03-06T05:11:17;51.53;;;29.90;;
9924;SDS011;5001;51.674;7.868;2024-03-06T05:14:01;46.90;;;29.50;;
9924;SDS011;5001;51.674;7.868;2024-03-06T05:16:46;50.57;;;31.67;;
9924;SDS011;5001;51.674;7.868;2024-03-06T05:19:32;62.10;;;34.80;;
9924;SDS011;5001;51.674;7.868;2024-03-06T05:22:16;49.20;;;31.37;;
9924;SDS011;5001;51.674;7.868;2024-03-06T05:25:01;52.40;;;31.90;;
9924;SDS011;5001;51.674;7.868;2024-03-06T05:27:45;49.93;;;31.60;;
9924;SDS011;5001;51.674;7.868;2024-03-06T05:30:30;55.50;;;32.23;;
9924;SDS011;5001;51.674;7.868;2024-03-06T05:33:14;52.50;;;29.73;;
9924;SDS011;5001;51.674;7.868;2024-03-06T05:35:59;55.93;;;31.73;;
9924;SDS011;5001;51.674;7.868;2024-03-06T05:38:44;71.23;;;33.57;;
9924;SDS011;5001;51.674;7.868;2024-03-06T05:41:29;53.60;;;31.63;;
9924;SDS011;5001;51.674;7.868;2024-03-06T05:44:14;51.87;;;32.20;;
9924;SDS011;5001;51.674;7.868;2024-03-06T05:46:59;50.83;;;31.73;;
9924;SDS011;5001;51.674;7.868;2024-03-06T05:49:44;52.20;;;31.43;;
9924;SDS011;5001;51.674;7.868;2024-03-06T05:52:29;55.20;;;32.83;;
9924;SDS011;5001;51.674;7.868;2024-03-06T05:55:14;57.47;;;32.03;;
9924;SDS011;5001;51.674;7.868;2024-03-06T05:57:58;50.90;;;32.00;;
9924;SDS011;5001;51.674;7.868;2024-03-06T06:00:37;53.63;;;33.27;;
9924;SDS011;5001;51.674;7.868;2024-03-06T06:03:05;45.30;;;31.23;;
9924;SDS011;5001;51.674;7.868;2024-03-06T06:05:33;51.60;;;33.47;;
9924;SDS011;5001;51.674;7.868;2024-03-06T06:08:05;48.50;;;31.87;;
9924;SDS011;5001;51.674;7.868;2024-03-06T06:10:32;53.07;;;32.07;;
9924;SDS011;5001;51.674;7.868;2024-03-06T06:13:00;49.30;;;31.23;;
9924;SDS011;5001;51.674;7.868;2024-03-06T06:15:28;45.27;;;30.40;;
9924;SDS011;5001;51.674;7.868;2024-03-06T06:17:54;45.13;;;31.43;;
9924;SDS011;5001;51.674;7.868;2024-03-06T06:20:22;45.50;;;31.27;;
9924;SDS011;5001;51.674;7.868;2024-03-06T06:22:49;48.03;;;30.60;;
9924;SDS011;5001;51.674;7.868;2024-03-06T06:25:16;45.87;;;30.83;;
9924;SDS011;5001;51.674;7.868;2024-03-06T06:27:43;54.57;;;31.03;;
9924;SDS011;5001;51.674;7.868;2024-03-06T06:30:10;49.33;;;32.07;;
9924;SDS011;5001;51.674;7.868;2024-03-06T06:32:40;54.47;;;31.97;;
9924;SDS011;5001;51.674;7.868;2024-03-06T06:35:11;52.73;;;32.23;;
9924;SDS011;5001;51.674;7.868;2024-03-06T06:37:41;59.63;;;34.50;;
9924;SDS011;5001;51.674;7.868;2024-03-06T06:40:08;53.43;;;36.77;;
9924;SDS011;5001;51.674;7.868;2024-03-06T06:42:36;59.50;;;33.77;;
9924;SDS011;5001;51.674;7.868;2024-03-06T06:45:03;58.60;;;34.90;;
9924;SDS011;5001;51.674;7.868;2024-03-06T06:47:33;51.73;;;33.33;;
9924;SDS011;5001;51.674;7.868;2024-03-06T06:50:00;62.77;;;35.37;;
9924;SDS011;5001;51.674;7.868;2024-03-06T06:52:32;59.27;;;36.27;;
9924;SDS011;5001;51.674;7.868;2024-03-06T06:55:00;60.00;;;35.13;;
9924;SDS011;5001;51.674;7.868;2024-03-06T06:57:28;64.30;;;37.53;;
9924;SDS011;5001;51.674;7.868;2024-03-06T06:59:55;62.30;;;38.57;;
9924;SDS011;5001;51.674;7.868;2024-03-06T07:02:22;70.17;;;39.93;;
9924;SDS011;5001;51.674;7.868;2024-03-06T07:04:49;64.67;;;38.60;;
9924;SDS011;5001;51.674;7.868;2024-03-06T07:07:16;69.77;;;42.50;;
9924;SDS011;5001;51.674;7.868;2024-03-06T07:09:43;83.87;;;44.43;;
9924;SDS011;5001;51.674;7.868;2024-03-06T07:12:10;101.67;;;50.47;;
9924;SDS011;5001;51.674;7.868;2024-03-06T07:14:37;123.77;;;58.30;;
9924;SDS011;5001;51.674;7.868;2024-03-06T07:17:04;48.58;;;34.42;;
9924;SDS011;5001;51.674;7.868;2024-03-06T07:19:31;36.45;;;29.75;;
9924;SDS011;5001;51.674;7.868;2024-03-06T07:21:58;34.83;;;30.30;;
9924;SDS011;5001;51.674;7.868;2024-03-06T07:24:27;33.28;;;29.73;;
9924;SDS011;5001;51.674;7.868;2024-03-06T07:26:56;35.70;;;29.88;;
9924;SDS011;5001;51.674;7.868;2024-03-06T07:29:23;34.35;;;30.65;;
9924;SDS011;5001;51.674;7.868;2024-03-06T07:31:50;36.83;;;30.73;;
9924;SDS011;5001;51.674;7.868;2024-03-06T07:34:17;34.60;;;30.88;;
9924;SDS011;5001;51.674;7.868;2024-03-06T07:36:44;41.30;;;32.80;;
9924;SDS011;5001;51.674;7.868;2024-03-06T07:39:12;44.22;;;35.58;;
9924;SDS011;5001;51.674;7.868;2024-03-06T07:41:43;42.10;;;34.03;;
9924;SDS011;5001;51.674;7.868;2024-03-06T07:44:10;42.90;;;34.08;;
9924;SDS011;5001;51.674;7.868;2024-03-06T07:46:37;36.70;;;32.75;;
9924;SDS011;5001;51.674;7.868;2024-03-06T07:49:04;38.72;;;33.35;;
9924;SDS011;5001;51.674;7.868;2024-03-06T07:51:32;41.55;;;33.90;;
9924;SDS011;5001;51.674;7.868;2024-03-06T07:53:59;44.95;;;36.92;;
9924;SDS011;5001;51.674;7.868;2024-03-06T07:56:27;42.97;;;36.38;;
9924;SDS011;5001;51.674;7.868;2024-03-06T07:58:54;49.78;;;35.95;;
9924;SDS011;5001;51.674;7.868;2024-03-06T08:01:23;48.15;;;36.65;;
9924;SDS011;5001;51.674;7.868;2024-03-06T08:03:50;47.25;;;36.60;;
9924;SDS011;5001;51.674;7.868;2024-03-06T08:06:18;47.35;;;37.17;;
9924;SDS011;5001;51.674;7.868;2024-03-06T08:08:45;41.53;;;34.10;;
9924;SDS011;5001;51.674;7.868;2024-03-06T08:11:15;45.38;;;35.80;;
9924;SDS011;5001;51.674;7.868;2024-03-06T08:13:43;45.78;;;35.63;;
9924;SDS011;5001;51.674;7.868;2024-03-06T08:16:10;45.13;;;33.60;;
9924;SDS011;5001;51.674;7.868;2024-03-06T08:18:37;39.70;;;32.80;;
9924;SDS011;5001;51.674;7.868;2024-03-06T08:21:07;37.25;;;31.38;;
9924;SDS011;5001;51.674;7.868;2024-03-06T08:23:33;40.90;;;32.83;;
9924;SDS011;5001;51.674;7.868;2024-03-06T08:26:00;41.40;;;34.13;;
9924;SDS011;5001;51.674;7.868;2024-03-06T08:28:27;42.38;;;33.42;;
9924;SDS011;5001;51.674;7.868;2024-03-06T08:30:54;38.45;;;32.63;;
9924;SDS011;5001;51.674;7.868;2024-03-06T08:33:21;41.60;;;33.08;;
9924;SDS011;5001;51.674;7.868;2024-03-06T08:35:49;43.22;;;34.15;;
9924;SDS011;5001;51.674;7.868;2024-03-06T08:38:17;40.72;;;33.90;;
9924;SDS011;5001;51.674;7.868;2024-03-06T08:40:44;44.35;;;34.95;;
9924;SDS011;5001;51.674;7.868;2024-03-06T08:43:12;44.55;;;34.90;;
9924;SDS011;5001;51.674;7.868;2024-03-06T08:45:42;42.05;;;34.38;;
9924;SDS011;5001;51.674;7.868;2024-03-06T08:48:09;44.58;;;33.53;;
9924;SDS011;5001;51.674;7.868;2024-03-06T08:50:38;43.63;;;34.90;;
9924;SDS011;5001;51.674;7.868;2024-03-06T08:53:06;41.65;;;35.58;;
9924;SDS011;5001;51.674;7.868;2024-03-06T08:55:36;49.28;;;35.97;;
9924;SDS011;5001;51.674;7.868;2024-03-06T08:58:03;45.53;;;34.80;;
9924;SDS011;5001;51.674;7.868;2024-03-06T09:00:30;49.13;;;36.83;;
9924;SDS011;5001;51.674;7.868;2024-03-06T09:02:57;50.45;;;37.65;;
9924;SDS011;5001;51.674;7.868;2024-03-06T09:05:24;49.33;;;37.88;;
9924;SDS011;5001;51.674;7.868;2024-03-06T09:07:51;53.22;;;38.55;;
9924;SDS011;5001;51.674;7.868;2024-03-06T09:10:18;46.92;;;35.72;;
9924;SDS011;5001;51.674;7.868;2024-03-06T09:12:46;48.78;;;37.00;;
9924;SDS011;5001;51.674;7.868;2024-03-06T09:15:14;43.72;;;34.97;;
9924;SDS011;5001;51.674;7.868;2024-03-06T09:17:41;48.83;;;38.25;;
9924;SDS011;5001;51.674;7.868;2024-03-06T09:20:09;47.88;;;36.00;;
9924;SDS011;5001;51.674;7.868;2024-03-06T09:22:38;43.08;;;35.40;;
9924;SDS011;5001;51.674;7.868;2024-03-06T09:25:06;47.17;;;37.35;;
9924;SDS011;5001;51.674;7.868;2024-03-06T09:27:34;49.15;;;37.38;;
9924;SDS011;5001;51.674;7.868;2024-03-06T09:30:02;50.33;;;37.78;;
9924;SDS011;5001;51.674;7.868;2024-03-06T09:32:29;44.20;;;35.40;;
9924;SDS011;5001;51.674;7.868;2024-03-06T09:34:58;48.63;;;36.08;;
9924;SDS011;5001;51.674;7.868;2024-03-06T09:37:25;45.90;;;36.17;;
9924;SDS011;5001;51.674;7.868;2024-03-06T09:39:52;43.95;;;34.85;;
9924;SDS011;5001;51.674;7.868;2024-03-06T09:42:19;44.42;;;35.95;;
9924;SDS011;5001;51.674;7.868;2024-03-06T09:44:46;45.17;;;34.95;;
9924;SDS011;5001;51.674;7.868;2024-03-06T09:47:14;48.00;;;36.10;;
9924;SDS011;5001;51.674;7.868;2024-03-06T09:49:51;42.67;;;36.17;;
9924;SDS011;5001;51.674;7.868;2024-03-06T09:52:20;45.13;;;36.35;;
9924;SDS011;5001;51.674;7.868;2024-03-06T09:54:51;46.33;;;35.67;;
9924;SDS011;5001;51.674;7.868;2024-03-06T09:57:21;46.22;;;37.03;;
9924;SDS011;5001;51.674;7.868;2024-03-06T09:59:48;44.58;;;35.40;;
9924;SDS011;5001;51.674;7.868;2024-03-06T10:02:24;42.78;;;34.92;;
9924;SDS011;5001;51.674;7.868;2024-03-06T10:05:01;49.20;;;37.35;;
9924;SDS011;5001;51.674;7.868;2024-03-06T10:07:28;41.80;;;35.53;;
9924;SDS011;5001;51.674;7.868;2024-03-06T10:09:55;41.75;;;33.53;;
9924;SDS011;5001;51.674;7.868;2024-03-06T10:12:22;44.80;;;33.22;;
9924;SDS011;5001;51.674;7.868;2024-03-06T10:14:50;40.83;;;34.88;;
9924;SDS011;5001;51.674;7.868;2024-03-06T10:17:21;42.40;;;34.40;;
9924;SDS011;5001;51.674;7.868;2024-03-06T10:19:54;38.10;;;33.90;;
9924;SDS011;5001;51.674;7.868;2024-03-06T10:22:22;42.38;;;34.53;;
9924;SDS011;5001;51.674;7.868;2024-03-06T10:24:54;39.08;;;33.05;;
9924;SDS011;5001;51.674;7.868;2024-03-06T10:27:22;36.78;;;32.85;;
9924;SDS011;5001;51.674;7.868;2024-03-06T10:30:02;36.67;;;32.40;;
9924;SDS011;5001;51.674;7.868;2024-03-06T10:32:32;37.58;;;32.78;;
9924;SDS011;5001;51.674;7.868;2024-03-06T10:34:59;38.00;;;33.08;;
9924;SDS011;5001;51.674;7.868;2024-03-06T10:37:27;37.08;;;32.92;;
9924;SDS011;5001;51.674;7.868;2024-03-06T10:39:55;38.30;;;34.13;;
9924;SDS011;5001;51.674;7.868;2024-03-06T10:42:32;38.83;;;33.78;;
9924;SDS011;5001;51.674;7.868;2024-03-06T10:45:01;40.10;;;33.65;;
9924;SDS011;5001;51.674;7.868;2024-03-06T10:47:30;35.60;;;31.85;;
9924;SDS011;5001;51.674;7.868;2024-03-06T10:49:59;36.95;;;32.90;;
9924;SDS011;5001;51.674;7.868;2024-03-06T10:52:30;36.35;;;32.67;;
9924;SDS011;5001;51.674;7.868;2024-03-06T10:54:59;35.05;;;31.30;;
9924;SDS011;5001;51.674;7.868;2024-03-06T10:57:27;34.80;;;31.05;;
9924;SDS011;5001;51.674;7.868;2024-03-06T10:59:56;37.33;;;31.85;;
9924;SDS011;5001;51.674;7.868;2024-03-06T11:02:32;37.95;;;32.13;;
9924;SDS011;5001;51.674;7.868;2024-03-06T11:05:02;36.80;;;32.80;;
9924;SDS011;5001;51.674;7.868;2024-03-06T11:07:31;37.20;;;32.90;;
9924;SDS011;5001;51.674;7.868;2024-03-06T11:09:59;39.10;;;33.28;;
9924;SDS011;5001;51.674;7.868;2024-03-06T11:12:32;36.13;;;32.05;;
9924;SDS011;5001;51.674;7.868;2024-03-06T11:15:14;37.53;;;31.95;;
9924;SDS011;5001;51.674;7.868;2024-03-06T11:17:43;35.10;;;31.27;;
9924;SDS011;5001;51.674;7.868;2024-03-06T11:20:17;35.25;;;31.48;;
9924;SDS011;5001;51.674;7.868;2024-03-06T11:28:20;34.47;;;30.70;;
9924;SDS011;5001;51.674;7.868;2024-03-06T11:33:20;35.72;;;31.50;;
9924;SDS011;5001;51.674;7.868;2024-03-06T11:41:26;34.10;;;28.75;;
9924;SDS011;5001;51.674;7.868;2024-03-06T11:44:01;33.55;;;28.27;;
9924;SDS011;5001;51.674;7.868;2024-03-06T11:49:18;32.28;;;28.75;;
9924;SDS011;5001;51.674;7.868;2024-03-06T11:51:56;34.22;;;30.40;;
9924;SDS011;5001;51.674;7.868;2024-03-06T11:54:29;32.20;;;28.60;;
9924;SDS011;5001;51.674;7.868;2024-03-06T11:56:57;34.25;;;29.42;;
9924;SDS011;5001;51.674;7.868;2024-03-06T11:59:26;32.05;;;28.85;;
9924;SDS011;5001;51.674;7.868;2024-03-06T12:01:56;30.40;;;27.35;;
9924;SDS011;5001;51.674;7.868;2024-03-06T12:04:24;30.65;;;27.48;;
9924;SDS011;5001;51.674;7.868;2024-03-06T12:06:51;31.50;;;28.17;;
9924;SDS011;5001;51.674;7.868;2024-03-06T12:09:18;30.25;;;27.23;;
9924;SDS011;5001;51.674;7.868;2024-03-06T12:11:47;29.00;;;26.13;;
9924;SDS011;5001;51.674;7.868;2024-03-06T12:14:16;29.83;;;26.73;;
9924;SDS011;5001;51.674;7.868;2024-03-06T12:16:44;30.95;;;27.83;;
9924;SDS011;5001;51.674;7.868;2024-03-06T12:19:22;32.00;;;28.63;;
9924;SDS011;5001;51.674;7.868;2024-03-06T12:21:50;33.25;;;29.75;;
9924;SDS011;5001;51.674;7.868;2024-03-06T12:24:17;32.67;;;29.27;;
9924;SDS011;5001;51.674;7.868;2024-03-06T12:26:47;35.80;;;30.80;;
9924;SDS011;5001;51.674;7.868;2024-03-06T12:29:30;35.38;;;29.92;;
9924;SDS011;5001;51.674;7.868;2024-03-06T12:31:59;31.70;;;28.30;;
9924;SDS011;5001;51.674;7.868;2024-03-06T12:34:27;32.72;;;28.40;;
9924;SDS011;5001;51.674;7.868;2024-03-06T12:36:54;33.35;;;28.90;;
9924;SDS011;5001;51.674;7.868;2024-03-06T12:39:23;33.42;;;29.33;;
9924;SDS011;5001;51.674;7.868;2024-03-06T12:41:50;32.15;;;28.85;;
9924;SDS011;5001;51.674;7.868;2024-03-06T12:44:19;32.97;;;29.33;;
9924;SDS011;5001;51.674;7.868;2024-03-06T12:46:46;31.95;;;27.88;;
9924;SDS011;5001;51.674;7.868;2024-03-06T12:49:13;33.25;;;27.35;;
9924;SDS011;5001;51.674;7.868;2024-03-06T12:51:41;32.67;;;28.20;;
9924;SDS011;5001;51.674;7.868;2024-03-06T12:54:08;32.28;;;28.83;;
9924;SDS011;5001;51.674;7.868;2024-03-06T12:56:36;31.17;;;27.98;;
9924;SDS011;5001;51.674;7.868;2024-03-06T12:59:03;33.10;;;28.10;;
9924;SDS011;5001;51.674;7.868;2024-03-06T13:01:30;31.67;;;28.38;;
9924;SDS011;5001;51.674;7.868;2024-03-06T13:03:58;34.95;;;28.33;;
9924;SDS011;5001;51.674;7.868;2024-03-06T13:06:32;31.17;;;27.55;;
9924;SDS011;5001;51.674;7.868;2024-03-06T13:09:00;32.67;;;28.58;;
9924;SDS011;5001;51.674;7.868;2024-03-06T13:11:27;31.45;;;28.17;;
9924;SDS011;5001;51.674;7.868;2024-03-06T13:13:54;29.75;;;26.83;;
9924;SDS011;5001;51.674;7.868;2024-03-06T13:16:21;30.38;;;27.20;;
9924;SDS011;5001;51.674;7.868;2024-03-06T13:18:48;31.65;;;28.27;;
9924;SDS011;5001;51.674;7.868;2024-03-06T13:21:19;29.95;;;26.88;;
9924;SDS011;5001;51.674;7.868;2024-03-06T13:23:46;29.05;;;26.02;;
9924;SDS011;5001;51.674;7.868;2024-03-06T13:26:14;30.60;;;27.45;;
9924;SDS011;5001;51.674;7.868;2024-03-06T13:28:42;30.55;;;27.38;;
9924;SDS011;5001;51.674;7.868;2024-03-06T13:31:09;30.48;;;27.02;;
9924;SDS011;5001;51.674;7.868;2024-03-06T13:33:36;32.38;;;27.90;;
9924;SDS011;5001;51.674;7.868;2024-03-06T13:36:03;30.25;;;27.17;;
9924;SDS011;5001;51.674;7.868;2024-03-06T13:38:31;30.30;;;27.10;;
9924;SDS011;5001;51.674;7.868;2024-03-06T13:40:58;29.20;;;26.20;;
9924;SDS011;5001;51.674;7.868;2024-03-06T13:43:28;33.57;;;27.67;;
9924;SDS011;5001;51.674;7.868;2024-03-06T13:45:55;29.98;;;26.88;;
9924;SDS011;5001;51.674;7.868;2024-03-06T13:48:23;31.67;;;27.13;;
9924;SDS011;5001;51.674;7.868;2024-03-06T13:50:50;29.57;;;26.57;;
9924;SDS011;5001;51.674;7.868;2024-03-06T13:53:18;32.58;;;27.27;;
9924;SDS011;5001;51.674;7.868;2024-03-06T13:55:45;30.47;;;27.33;;
9924;SDS011;5001;51.674;7.868;2024-03-06T13:58:12;30.13;;;26.93;;
9924;SDS011;5001;51.674;7.868;2024-03-06T14:00:39;30.17;;;26.97;;
9924;SDS011;5001;51.674;7.868;2024-03-06T14:03:05;30.33;;;26.20;;
9924;SDS011;5001;51.674;7.868;2024-03-06T14:05:32;30.03;;;26.83;;
9924;SDS011;5001;51.674;7.868;2024-03-06T14:07:59;29.17;;;25.13;;
9924;SDS011;5001;51.674;7.868;2024-03-06T14:10:27;30.10;;;26.33;;
9924;SDS011;5001;51.674;7.868;2024-03-06T14:12:54;32.30;;;26.73;;
9924;SDS011;5001;51.674;7.868;2024-03-06T14:15:22;30.87;;;27.43;;
9924;SDS011;5001;51.674;7.868;2024-03-06T14:17:50;30.07;;;26.87;;
9924;SDS011;5001;51.674;7.868;2024-03-06T14:20:17;35.73;;;27.77;;
9924;SDS011;5001;51.674;7.868;2024-03-06T14:22:45;32.47;;;29.10;;
9924;SDS011;5001;51.674;7.868;2024-03-06T14:25:12;33.63;;;27.57;;
9924;SDS011;5001;51.674;7.868;2024-03-06T14:27:39;30.40;;;27.17;;
9924;SDS011;5001;51.674;7.868;2024-03-06T14:30:07;36.50;;;27.90;;
9924;SDS011;5001;51.674;7.868;2024-03-06T14:32:34;33.43;;;26.60;;
9924;SDS011;5001;51.674;7.868;2024-03-06T14:35:02;28.63;;;25.57;;
9924;SDS011;5001;51.674;7.868;2024-03-06T14:37:29;29.37;;;26.17;;
9924;SDS011;5001;51.674;7.868;2024-03-06T14:39:56;31.00;;;27.57;;
9924;SDS011;5001;51.674;7.868;2024-03-06T14:42:25;30.20;;;27.07;;
9924;SDS011;5001;51.674;7.868;2024-03-06T14:44:52;31.57;;;27.03;;
9924;SDS011;5001;51.674;7.868;2024-03-06T14:47:19;30.60;;;27.27;;
9924;SDS011;5001;51.674;7.868;2024-03-06T14:49:46;29.47;;;26.40;;
9924;SDS011;5001;51.674;7.868;2024-03-06T14:52:13;29.93;;;26.77;;
9924;SDS011;5001;51.674;7.868;2024-03-06T14:54:40;32.50;;;27.57;;
9924;SDS011;5001;51.674;7.868;2024-03-06T14:57:10;32.60;;;28.23;;
9924;SDS011;5001;51.674;7.868;2024-03-06T14:59:38;31.67;;;27.87;;
9924;SDS011;5001;51.674;7.868;2024-03-06T15:02:05;33.43;;;27.63;;
9924;SDS011;5001;51.674;7.868;2024-03-06T15:04:33;31.70;;;27.17;;
9924;SDS011;5001;51.674;7.868;2024-03-06T15:07:00;32.17;;;28.43;;
9924;SDS011;5001;51.674;7.868;2024-03-06T15:09:27;32.87;;;26.33;;
9924;SDS011;5001;51.674;7.868;2024-03-06T15:11:54;32.23;;;26.73;;
9924;SDS011;5001;51.674;7.868;2024-03-06T15:14:23;32.73;;;27.37;;